sensor_id;sensor_type;location;lat;lon;timestamp;temperature;humidity
18291;DHT22;9271;48.590;8.866;2023-03-14T00:00:18;11.20;99.90
18291;DHT22;9271;48.590;8.866;2023-03-14T00:02:51;11.20;99.90
18291;DHT22;9271;48.590;8.866;2023-03-14T00:05:18;11.20;99.90
18291;DHT22;9271;48.590;8.866;2023-03-14T00:07:45;11.30;99.90
18291;DHT22;9271;48.590;8.866;2023-03-14T00:10:13;11.40;99.90
18291;DHT22;9271;48.590;8.866;2023-03-14T00:12:41;11.50;99.90
18291;DHT22;9271;48.590;8.866;2023-03-14T00:15:09;11.50;99.90
18291;DHT22;9271;48.590;8.866;2023-03-14T00:17:36;11.40;99.90
18291;DHT22;9271;48.590;8.866;2023-03-14T00:20:05;11.40;99.90
18291;DHT22;9271;48.590;8.866;2023-03-14T00:22:34;11.50;99.90
18291;DHT22;9271;48.590;8.866;2023-03-14T00:25:01;11.70;99.90
18291;DHT22;9271;48.590;8.866;2023-03-14T00:27:28;11.60;99.90
18291;DHT22;9271;48.590;8.866;2023-03-14T00:29:54;11.50;99.90
18291;DHT22;9271;48.590;8.866;2023-03-14T00:32:21;11.30;99.90
18291;DHT22;9271;48.590;8.866;2023-03-14T00:34:48;11.20;99.90
18291;DHT22;9271;48.590;8.866;2023-03-14T00:37:16;11.00;99.90
18291;DHT22;9271;48.590;8.866;2023-03-14T00:39:42;10.70;99.90
18291;DHT22;9271;48.590;8.866;2023-03-14T00:42:09;10.80;99.90
18291;DHT22;9271;48.590;8.866;2023-03-14T00:44:36;11.00;99.90
18291;DHT22;9271;48.590;8.866;2023-03-14T00:47:03;11.00;99.90
18291;DHT22;9271;48.590;8.866;2023-03-14T00:49:29;11.00;99.90
18291;DHT22;9271;48.590;8.866;2023-03-14T00:51:56;11.00;99.90
18291;DHT22;9271;48.590;8.866;2023-03-14T00:54:24;11.00;99.90
18291;DHT22;9271;48.590;8.866;2023-03-14T00:56:51;10.90;99.90
18291;DHT22;9271;48.590;8.866;2023-03-14T00:59:17;10.80;99.90
18291;DHT22;9271;48.590;8.866;2023-03-14T01:01:44;10.70;99.90
18291;DHT22;9271;48.590;8.866;2023-03-14T01:04:11;10.50;99.90
18291;DHT22;9271;48.590;8.866;2023-03-14T01:06:38;10.60;99.90
18291;DHT22;9271;48.590;8.866;2023-03-14T01:09:05;10.60;99.90
18291;DHT22;9271;48.590;8.866;2023-03-14T01:11:34;10.60;99.90
18291;DHT22;9271;48.590;8.866;2023-03-14T01:14:02;10.60;99.90
18291;DHT22;9271;48.590;8.866;2023-03-14T01:16:31;10.70;99.90
18291;DHT22;9271;48.590;8.866;2023-03-14T01:18:58;10.90;99.90
18291;DHT22;9271;48.590;8.866;2023-03-14T01:21:26;10.90;99.90
18291;DHT22;9271;48.590;8.866;2023-03-14T01:23:54;10.80;99.90
18291;DHT22;9271;48.590;8.866;2023-03-14T01:26:23;10.60;99.90
18291;DHT22;9271;48.590;8.866;2023-03-14T01:28:53;10.70;99.90
18291;DHT22;9271;48.590;8.866;2023-03-14T01:31:19;10.70;99.90
18291;DHT22;9271;48.590;8.866;2023-03-14T01:33:46;10.70;99.90
18291;DHT22;9271;48.590;8.866;2023-03-14T01:36:13;10.60;99.90
18291;DHT22;9271;48.590;8.866;2023-03-14T01:38:40;10.50;99.90
18291;DHT22;9271;48.590;8.866;2023-03-14T01:41:09;10.50;99.90
18291;DHT22;9271;48.590;8.866;2023-03-14T01:43:38;10.50;99.90
18291;DHT22;9271;48.590;8.866;2023-03-14T01:46:22;10.60;99.90
18291;DHT22;9271;48.590;8.866;2023-03-14T01:49:04;10.70;99.90
18291;DHT22;9271;48.590;8.866;2023-03-14T01:51:36;10.60;99.90
18291;DHT22;9271;48.590;8.866;2023-03-14T01:54:09;10.30;99.90
18291;DHT22;9271;48.590;8.866;2023-03-14T01:56:37;10.20;99.90
18291;DHT22;9271;48.590;8.866;2023-03-14T01:59:06;10.20;99.90
18291;DHT22;9271;48.590;8.866;2023-03-14T02:01:36;10.10;99.90
18291;DHT22;9271;48.590;8.866;2023-03-14T02:04:05;10.20;99.90
18291;DHT22;9271;48.590;8.866;2023-03-14T02:06:39;10.30;99.90
18291;DHT22;9271;48.590;8.866;2023-03-14T02:09:07;10.30;99.90
18291;DHT22;9271;48.590;8.866;2023-03-14T02:11:34;10.10;99.90
18291;DHT22;9271;48.590;8.866;2023-03-14T02:14:01;10.20;99.90
18291;DHT22;9271;48.590;8.866;2023-03-14T02:16:28;10.30;99.90
18291;DHT22;9271;48.590;8.866;2023-03-14T02:18:57;10.50;99.90
18291;DHT22;9271;48.590;8.866;2023-03-14T02:21:35;10.50;99.90
18291;DHT22;9271;48.590;8.866;2023-03-14T02:24:09;10.60;99.90
18291;DHT22;9271;48.590;8.866;2023-03-14T02:26:44;10.40;99.90
18291;DHT22;9271;48.590;8.866;2023-03-14T02:29:13;10.50;99.90
18291;DHT22;9271;48.590;8.866;2023-03-14T02:31:40;10.50;99.90
18291;DHT22;9271;48.590;8.866;2023-03-14T02:34:06;10.40;99.90
18291;DHT22;9271;48.590;8.866;2023-03-14T02:36:33;10.20;99.90
18291;DHT22;9271;48.590;8.866;2023-03-14T02:39:05;10.20;99.90
18291;DHT22;9271;48.590;8.866;2023-03-14T02:41:34;10.10;99.90
18291;DHT22;9271;48.590;8.866;2023-03-14T02:44:01;9.90;99.90
18291;DHT22;9271;48.590;8.866;2023-03-14T02:46:29;10.10;99.90
18291;DHT22;9271;48.590;8.866;2023-03-14T02:48:59;10.20;99.90
18291;DHT22;9271;48.590;8.866;2023-03-14T02:51:27;10.30;99.90
18291;DHT22;9271;48.590;8.866;2023-03-14T02:53:55;10.20;99.90
18291;DHT22;9271;48.590;8.866;2023-03-14T02:56:21;10.00;99.90
18291;DHT22;9271;48.590;8.866;2023-03-14T02:58:48;9.90;99.90
18291;DHT22;9271;48.590;8.866;2023-03-14T03:01:15;9.90;99.90
18291;DHT22;9271;48.590;8.866;2023-03-14T03:03:43;10.00;99.90
18291;DHT22;9271;48.590;8.866;2023-03-14T03:06:10;9.90;99.90
18291;DHT22;9271;48.590;8.866;2023-03-14T03:08:36;9.90;99.90
18291;DHT22;9271;48.590;8.866;2023-03-14T03:11:03;9.70;99.90
18291;DHT22;9271;48.590;8.866;2023-03-14T03:13:30;9.80;99.90
18291;DHT22;9271;48.590;8.866;2023-03-14T03:15:57;9.70;99.90
18291;DHT22;9271;48.590;8.866;2023-03-14T03:18:24;9.80;99.90
18291;DHT22;9271;48.590;8.866;2023-03-14T03:20:52;9.60;99.90
18291;DHT22;9271;48.590;8.866;2023-03-14T03:23:19;9.70;99.90
18291;DHT22;9271;48.590;8.866;2023-03-14T03:25:49;9.60;99.90
18291;DHT22;9271;48.590;8.866;2023-03-14T03:28:16;9.60;99.90
18291;DHT22;9271;48.590;8.866;2023-03-14T03:30:43;9.60;99.90
18291;DHT22;9271;48.590;8.866;2023-03-14T03:33:10;9.70;99.90
18291;DHT22;9271;48.590;8.866;2023-03-14T03:35:42;9.70;99.90
18291;DHT22;9271;48.590;8.866;2023-03-14T03:38:11;9.70;99.90
18291;DHT22;9271;48.590;8.866;2023-03-14T03:40:38;9.60;99.90
18291;DHT22;9271;48.590;8.866;2023-03-14T03:43:04;9.70;99.90
18291;DHT22;9271;48.590;8.866;2023-03-14T03:45:31;9.80;99.90
18291;DHT22;9271;48.590;8.866;2023-03-14T03:47:58;9.70;99.90
18291;DHT22;9271;48.590;8.866;2023-03-14T03:50:25;9.70;99.90
18291;DHT22;9271;48.590;8.866;2023-03-14T03:52:51;9.70;99.90
18291;DHT22;9271;48.590;8.866;2023-03-14T03:55:19;9.60;99.90
18291;DHT22;9271;48.590;8.866;2023-03-14T03:57:46;9.60;99.90
18291;DHT22;9271;48.590;8.866;2023-03-14T04:00:13;9.70;99.90
18291;DHT22;9271;48.590;8.866;2023-03-14T04:02:40;9.70;99.90
18291;DHT22;9271;48.590;8.866;2023-03-14T04:05:08;9.80;99.90
18291;DHT22;9271;48.590;8.866;2023-03-14T04:07:34;9.80;99.90
18291;DHT22;9271;48.590;8.866;2023-03-14T04:10:01;9.80;99.90
18291;DHT22;9271;48.590;8.866;2023-03-14T04:12:29;9.80;99.90
18291;DHT22;9271;48.590;8.866;2023-03-14T04:14:56;9.90;99.90
18291;DHT22;9271;48.590;8.866;2023-03-14T04:17:22;9.90;99.90
18291;DHT22;9271;48.590;8.866;2023-03-14T04:19:49;10.00;99.90
18291;DHT22;9271;48.590;8.866;2023-03-14T04:22:18;10.00;99.90
18291;DHT22;9271;48.590;8.866;2023-03-14T04:24:45;9.80;99.90
18291;DHT22;9271;48.590;8.866;2023-03-14T04:27:12;9.70;99.90
18291;DHT22;9271;48.590;8.866;2023-03-14T04:29:41;9.60;99.90
18291;DHT22;9271;48.590;8.866;2023-03-14T04:32:08;9.80;99.90
18291;DHT22;9271;48.590;8.866;2023-03-14T04:34:35;9.90;99.90
18291;DHT22;9271;48.590;8.866;2023-03-14T04:37:01;9.90;99.90
18291;DHT22;9271;48.590;8.866;2023-03-14T04:39:28;9.80;99.90
18291;DHT22;9271;48.590;8.866;2023-03-14T04:41:55;9.80;99.90
18291;DHT22;9271;48.590;8.866;2023-03-14T04:44:22;9.60;99.90
18291;DHT22;9271;48.590;8.866;2023-03-14T04:46:50;9.50;99.90
18291;DHT22;9271;48.590;8.866;2023-03-14T04:49:17;9.60;99.90
18291;DHT22;9271;48.590;8.866;2023-03-14T04:51:43;9.60;99.90
18291;DHT22;9271;48.590;8.866;2023-03-14T04:54:10;9.70;99.90
18291;DHT22;9271;48.590;8.866;2023-03-14T04:56:37;9.60;99.90
18291;DHT22;9271;48.590;8.866;2023-03-14T04:59:04;9.60;99.90
18291;DHT22;9271;48.590;8.866;2023-03-14T05:01:30;9.70;99.90
18291;DHT22;9271;48.590;8.866;2023-03-14T05:03:58;9.70;99.90
18291;DHT22;9271;48.590;8.866;2023-03-14T05:06:25;9.60;99.90
18291;DHT22;9271;48.590;8.866;2023-03-14T05:08:52;9.70;99.90
18291;DHT22;9271;48.590;8.866;2023-03-14T05:11:18;9.70;99.90
18291;DHT22;9271;48.590;8.866;2023-03-14T05:13:45;9.70;99.90
18291;DHT22;9271;48.590;8.866;2023-03-14T05:16:11;9.80;99.90
18291;DHT22;9271;48.590;8.866;2023-03-14T05:18:38;9.70;99.90
18291;DHT22;9271;48.590;8.866;2023-03-14T05:21:06;9.60;99.90
18291;DHT22;9271;48.590;8.866;2023-03-14T05:23:33;9.80;99.90
18291;DHT22;9271;48.590;8.866;2023-03-14T05:26:00;9.80;99.90
18291;DHT22;9271;48.590;8.866;2023-03-14T05:28:26;9.80;99.90
18291;DHT22;9271;48.590;8.866;2023-03-14T05:30:53;9.80;99.90
18291;DHT22;9271;48.590;8.866;2023-03-14T05:33:20;9.80;99.90
18291;DHT22;9271;48.590;8.866;2023-03-14T05:35:47;9.90;99.90
18291;DHT22;9271;48.590;8.866;2023-03-14T05:38:15;9.80;99.90
18291;DHT22;9271;48.590;8.866;2023-03-14T05:40:41;9.70;99.90
18291;DHT22;9271;48.590;8.866;2023-03-14T05:43:08;9.80;99.90
18291;DHT22;9271;48.590;8.866;2023-03-14T05:45:34;9.80;99.90
18291;DHT22;9271;48.590;8.866;2023-03-14T05:48:01;9.80;99.90
18291;DHT22;9271;48.590;8.866;2023-03-14T05:50:28;9.90;99.90
18291;DHT22;9271;48.590;8.866;2023-03-14T05:52:54;9.90;99.90
18291;DHT22;9271;48.590;8.866;2023-03-14T05:55:22;10.00;99.90
18291;DHT22;9271;48.590;8.866;2023-03-14T05:57:49;9.90;99.90
18291;DHT22;9271;48.590;8.866;2023-03-14T06:00:17;10.00;99.90
18291;DHT22;9271;48.590;8.866;2023-03-14T06:02:43;9.80;99.90
18291;DHT22;9271;48.590;8.866;2023-03-14T06:05:10;9.90;99.90
18291;DHT22;9271;48.590;8.866;2023-03-14T06:07:37;9.80;99.90
18291;DHT22;9271;48.590;8.866;2023-03-14T06:10:04;9.90;99.90
18291;DHT22;9271;48.590;8.866;2023-03-14T06:12:32;9.80;99.90
18291;DHT22;9271;48.590;8.866;2023-03-14T06:14:59;9.70;99.90
18291;DHT22;9271;48.590;8.866;2023-03-14T06:17:26;9.80;99.90
18291;DHT22;9271;48.590;8.866;2023-03-14T06:19:52;9.90;99.90
18291;DHT22;9271;48.590;8.866;2023-03-14T06:22:19;9.90;99.90
18291;DHT22;9271;48.590;8.866;2023-03-14T06:24:45;10.10;99.90
18291;DHT22;9271;48.590;8.866;2023-03-14T06:27:12;10.20;99.90
18291;DHT22;9271;48.590;8.866;2023-03-14T06:29:40;10.20;99.90
18291;DHT22;9271;48.590;8.866;2023-03-14T06:32:07;10.30;99.90
18291;DHT22;9271;48.590;8.866;2023-03-14T06:34:34;10.30;99.90
18291;DHT22;9271;48.590;8.866;2023-03-14T06:37:01;10.20;99.90
18291;DHT22;9271;48.590;8.866;2023-03-14T06:39:27;10.20;99.90
18291;DHT22;9271;48.590;8.866;2023-03-14T06:41:54;10.40;99.90
18291;DHT22;9271;48.590;8.866;2023-03-14T06:44:21;10.50;99.90
18291;DHT22;9271;48.590;8.866;2023-03-14T06:46:49;10.40;99.90
18291;DHT22;9271;48.590;8.866;2023-03-14T06:49:15;10.30;99.90
18291;DHT22;9271;48.590;8.866;2023-03-14T06:51:42;10.20;99.90
18291;DHT22;9271;48.590;8.866;2023-03-14T06:54:09;10.40;99.90
18291;DHT22;9271;48.590;8.866;2023-03-14T06:56:35;10.50;99.90
18291;DHT22;9271;48.590;8.866;2023-03-14T06:59:02;10.70;99.90
18291;DHT22;9271;48.590;8.866;2023-03-14T07:01:30;10.70;99.90
18291;DHT22;9271;48.590;8.866;2023-03-14T07:03:59;10.50;99.90
18291;DHT22;9271;48.590;8.866;2023-03-14T07:06:27;10.50;99.90
18291;DHT22;9271;48.590;8.866;2023-03-14T07:08:54;10.50;99.90
18291;DHT22;9271;48.590;8.866;2023-03-14T07:11:23;10.50;99.90
18291;DHT22;9271;48.590;8.866;2023-03-14T07:13:50;10.50;99.90
18291;DHT22;9271;48.590;8.866;2023-03-14T07:16:16;10.70;99.90
18291;DHT22;9271;48.590;8.866;2023-03-14T07:18:43;11.30;99.90
18291;DHT22;9271;48.590;8.866;2023-03-14T07:21:11;11.50;99.20
18291;DHT22;9271;48.590;8.866;2023-03-14T07:23:38;11.20;99.50
18291;DHT22;9271;48.590;8.866;2023-03-14T07:26:06;11.10;99.90
18291;DHT22;9271;48.590;8.866;2023-03-14T07:28:32;11.30;99.90
18291;DHT22;9271;48.590;8.866;2023-03-14T07:30:59;11.80;99.20
18291;DHT22;9271;48.590;8.866;2023-03-14T07:33:25;11.80;98.70
18291;DHT22;9271;48.590;8.866;2023-03-14T07:35:52;11.70;98.30
18291;DHT22;9271;48.590;8.866;2023-03-14T07:38:20;11.50;98.90
18291;DHT22;9271;48.590;8.866;2023-03-14T07:40:47;11.60;98.40
18291;DHT22;9271;48.590;8.866;2023-03-14T07:43:13;11.80;98.10
18291;DHT22;9271;48.590;8.866;2023-03-14T07:45:40;12.70;97.00
18291;DHT22;9271;48.590;8.866;2023-03-14T07:48:07;12.90;96.50
18291;DHT22;9271;48.590;8.866;2023-03-14T07:50:33;13.00;96.00
18291;DHT22;9271;48.590;8.866;2023-03-14T07:53:00;13.30;96.20
18291;DHT22;9271;48.590;8.866;2023-03-14T07:55:28;13.60;95.00
18291;DHT22;9271;48.590;8.866;2023-03-14T07:57:54;13.60;95.50
18291;DHT22;9271;48.590;8.866;2023-03-14T08:00:21;13.70;94.70
18291;DHT22;9271;48.590;8.866;2023-03-14T08:02:48;13.20;94.20
18291;DHT22;9271;48.590;8.866;2023-03-14T08:05:15;12.50;95.40
18291;DHT22;9271;48.590;8.866;2023-03-14T08:07:41;12.40;95.30
18291;DHT22;9271;48.590;8.866;2023-03-14T08:10:09;12.40;95.60
18291;DHT22;9271;48.590;8.866;2023-03-14T08:12:37;12.40;95.50
18291;DHT22;9271;48.590;8.866;2023-03-14T08:15:05;12.50;95.60
18291;DHT22;9271;48.590;8.866;2023-03-14T08:17:32;12.00;95.70
18291;DHT22;9271;48.590;8.866;2023-03-14T08:19:58;12.00;96.40
18291;DHT22;9271;48.590;8.866;2023-03-14T08:22:25;12.40;96.00
18291;DHT22;9271;48.590;8.866;2023-03-14T08:24:52;12.30;96.00
18291;DHT22;9271;48.590;8.866;2023-03-14T08:27:18;12.10;96.00
18291;DHT22;9271;48.590;8.866;2023-03-14T08:29:46;12.30;96.00
18291;DHT22;9271;48.590;8.866;2023-03-14T08:32:13;12.20;96.40
18291;DHT22;9271;48.590;8.866;2023-03-14T08:34:39;12.10;96.80
18291;DHT22;9271;48.590;8.866;2023-03-14T08:37:06;11.70;98.20
18291;DHT22;9271;48.590;8.866;2023-03-14T08:39:32;11.40;98.50
18291;DHT22;9271;48.590;8.866;2023-03-14T08:41:59;11.60;98.80
18291;DHT22;9271;48.590;8.866;2023-03-14T08:44:26;11.70;98.70
18291;DHT22;9271;48.590;8.866;2023-03-14T08:46:54;11.50;98.50
18291;DHT22;9271;48.590;8.866;2023-03-14T08:49:20;11.50;98.50
18291;DHT22;9271;48.590;8.866;2023-03-14T08:51:47;11.40;98.70
18291;DHT22;9271;48.590;8.866;2023-03-14T08:54:14;11.30;98.20
18291;DHT22;9271;48.590;8.866;2023-03-14T08:56:40;11.70;98.40
18291;DHT22;9271;48.590;8.866;2023-03-14T08:59:07;11.70;98.10
18291;DHT22;9271;48.590;8.866;2023-03-14T09:01:36;11.60;98.00
18291;DHT22;9271;48.590;8.866;2023-03-14T09:04:04;11.50;98.10
18291;DHT22;9271;48.590;8.866;2023-03-14T09:06:31;11.40;98.90
18291;DHT22;9271;48.590;8.866;2023-03-14T09:08:58;11.40;99.00
18291;DHT22;9271;48.590;8.866;2023-03-14T09:11:25;11.70;97.90
18291;DHT22;9271;48.590;8.866;2023-03-14T09:13:51;11.60;98.40
18291;DHT22;9271;48.590;8.866;2023-03-14T09:16:18;11.80;97.40
18291;DHT22;9271;48.590;8.866;2023-03-14T09:18:44;11.90;97.50
18291;DHT22;9271;48.590;8.866;2023-03-14T09:21:12;11.90;97.50
18291;DHT22;9271;48.590;8.866;2023-03-14T09:23:39;12.20;96.90
18291;DHT22;9271;48.590;8.866;2023-03-14T09:26:06;12.10;97.40
18291;DHT22;9271;48.590;8.866;2023-03-14T09:28:33;12.10;97.70
18291;DHT22;9271;48.590;8.866;2023-03-14T09:31:05;12.30;97.30
18291;DHT22;9271;48.590;8.866;2023-03-14T09:33:33;12.20;97.60
18291;DHT22;9271;48.590;8.866;2023-03-14T09:36:00;13.00;96.90
18291;DHT22;9271;48.590;8.866;2023-03-14T09:38:28;13.10;96.30
18291;DHT22;9271;48.590;8.866;2023-03-14T09:40:55;12.90;97.20
18291;DHT22;9271;48.590;8.866;2023-03-14T09:43:25;12.70;97.30
18291;DHT22;9271;48.590;8.866;2023-03-14T09:45:52;12.70;97.80
18291;DHT22;9271;48.590;8.866;2023-03-14T09:48:21;13.80;96.00
18291;DHT22;9271;48.590;8.866;2023-03-14T09:50:49;14.30;94.70
18291;DHT22;9271;48.590;8.866;2023-03-14T09:53:19;14.60;93.90
18291;DHT22;9271;48.590;8.866;2023-03-14T09:55:50;14.90;93.40
18291;DHT22;9271;48.590;8.866;2023-03-14T09:58:20;16.10;92.50
18291;DHT22;9271;48.590;8.866;2023-03-14T10:00:48;18.70;85.80
18291;DHT22;9271;48.590;8.866;2023-03-14T10:03:25;17.80;83.20
18291;DHT22;9271;48.590;8.866;2023-03-14T10:05:52;17.30;85.40
18291;DHT22;9271;48.590;8.866;2023-03-14T10:08:19;16.20;87.70
18291;DHT22;9271;48.590;8.866;2023-03-14T10:10:45;16.80;89.00
18291;DHT22;9271;48.590;8.866;2023-03-14T10:13:17;15.90;88.00
18291;DHT22;9271;48.590;8.866;2023-03-14T10:15:48;15.10;90.60
18291;DHT22;9271;48.590;8.866;2023-03-14T10:18:15;14.70;91.50
18291;DHT22;9271;48.590;8.866;2023-03-14T10:20:44;14.80;91.80
18291;DHT22;9271;48.590;8.866;2023-03-14T10:23:24;15.00;91.10
18291;DHT22;9271;48.590;8.866;2023-03-14T10:26:04;15.30;91.00
18291;DHT22;9271;48.590;8.866;2023-03-14T10:28:34;15.50;91.00
18291;DHT22;9271;48.590;8.866;2023-03-14T10:31:03;16.80;89.80
18291;DHT22;9271;48.590;8.866;2023-03-14T10:33:32;16.90;86.90
18291;DHT22;9271;48.590;8.866;2023-03-14T10:36:00;15.90;89.10
18291;DHT22;9271;48.590;8.866;2023-03-14T10:38:29;15.20;90.70
18291;DHT22;9271;48.590;8.866;2023-03-14T10:40:56;14.80;92.40
18291;DHT22;9271;48.590;8.866;2023-03-14T10:43:25;14.30;92.40
18291;DHT22;9271;48.590;8.866;2023-03-14T10:45:56;13.90;93.50
18291;DHT22;9271;48.590;8.866;2023-03-14T10:48:30;14.20;93.70
18291;DHT22;9271;48.590;8.866;2023-03-14T10:51:02;13.80;93.80
18291;DHT22;9271;48.590;8.866;2023-03-14T10:53:34;13.10;95.60
18291;DHT22;9271;48.590;8.866;2023-03-14T10:56:05;12.80;97.20
18291;DHT22;9271;48.590;8.866;2023-03-14T10:58:37;12.80;97.30
18291;DHT22;9271;48.590;8.866;2023-03-14T11:01:24;12.60;97.40
18291;DHT22;9271;48.590;8.866;2023-03-14T11:03:56;12.60;98.90
18291;DHT22;9271;48.590;8.866;2023-03-14T11:06:30;13.00;98.80
18291;DHT22;9271;48.590;8.866;2023-03-14T11:09:07;13.50;97.20
18291;DHT22;9271;48.590;8.866;2023-03-14T11:11:39;13.20;97.70
18291;DHT22;9271;48.590;8.866;2023-03-14T11:14:17;13.70;97.50
18291;DHT22;9271;48.590;8.866;2023-03-14T11:16:52;13.00;98.70
18291;DHT22;9271;48.590;8.866;2023-03-14T11:22:23;11.60;99.90
18291;DHT22;9271;48.590;8.866;2023-03-14T11:25:12;11.50;99.90
18291;DHT22;9271;48.590;8.866;2023-03-14T11:27:44;11.30;99.90
18291;DHT22;9271;48.590;8.866;2023-03-14T11:30:19;11.40;99.90
18291;DHT22;9271;48.590;8.866;2023-03-14T11:32:56;11.60;99.90
18291;DHT22;9271;48.590;8.866;2023-03-14T11:35:29;11.70;99.90
18291;DHT22;9271;48.590;8.866;2023-03-14T11:38:05;12.00;99.90
18291;DHT22;9271;48.590;8.866;2023-03-14T11:40:37;12.30;99.90
18291;DHT22;9271;48.590;8.866;2023-03-14T11:43:11;12.70;99.90
18291;DHT22;9271;48.590;8.866;2023-03-14T11:45:41;12.90;99.90
18291;DHT22;9271;48.590;8.866;2023-03-14T11:48:17;12.80;99.90
18291;DHT22;9271;48.590;8.866;2023-03-14T11:50:48;11.90;99.90
18291;DHT22;9271;48.590;8.866;2023-03-14T11:53:20;11.60;99.90
18291;DHT22;9271;48.590;8.866;2023-03-14T11:55:48;11.20;99.90
18291;DHT22;9271;48.590;8.866;2023-03-14T11:58:20;10.80;99.90
18291;DHT22;9271;48.590;8.866;2023-03-14T12:00:48;10.80;99.90
18291;DHT22;9271;48.590;8.866;2023-03-14T12:03:23;10.70;99.90
18291;DHT22;9271;48.590;8.866;2023-03-14T12:06:02;10.60;99.90
18291;DHT22;9271;48.590;8.866;2023-03-14T12:08:38;10.90;99.90
18291;DHT22;9271;48.590;8.866;2023-03-14T12:11:11;11.30;99.90
18291;DHT22;9271;48.590;8.866;2023-03-14T12:13:39;11.60;99.90
18291;DHT22;9271;48.590;8.866;2023-03-14T12:19:28;11.70;99.90
18291;DHT22;9271;48.590;8.866;2023-03-14T12:21:59;13.40;96.60
18291;DHT22;9271;48.590;8.866;2023-03-14T12:24:29;13.70;96.70
18291;DHT22;9271;48.590;8.866;2023-03-14T12:26:57;16.00;92.60
18291;DHT22;9271;48.590;8.866;2023-03-14T12:29:25;18.10;88.00
18291;DHT22;9271;48.590;8.866;2023-03-14T12:32:07;18.20;82.50
18291;DHT22;9271;48.590;8.866;2023-03-14T12:34:39;19.40;82.20
18291;DHT22;9271;48.590;8.866;2023-03-14T12:37:16;19.20;73.70
18291;DHT22;9271;48.590;8.866;2023-03-14T12:39:49;19.10;72.20
18291;DHT22;9271;48.590;8.866;2023-03-14T12:42:35;18.70;71.10
18291;DHT22;9271;48.590;8.866;2023-03-14T12:45:15;17.60;69.60
18291;DHT22;9271;48.590;8.866;2023-03-14T12:48:01;17.30;72.50
18291;DHT22;9271;48.590;8.866;2023-03-14T12:50:37;16.50;72.60
18291;DHT22;9271;48.590;8.866;2023-03-14T12:56:19;14.00;73.50
18291;DHT22;9271;48.590;8.866;2023-03-14T12:59:00;13.40;73.60
18291;DHT22;9271;48.590;8.866;2023-03-14T13:01:28;12.90;75.10
18291;DHT22;9271;48.590;8.866;2023-03-14T13:03:56;12.50;76.40
18291;DHT22;9271;48.590;8.866;2023-03-14T13:06:50;12.70;76.60
18291;DHT22;9271;48.590;8.866;2023-03-14T13:09:53;13.20;75.70
18291;DHT22;9271;48.590;8.866;2023-03-14T13:12:28;12.70;74.80
18291;DHT22;9271;48.590;8.866;2023-03-14T13:14:58;12.50;78.30
18291;DHT22;9271;48.590;8.866;2023-03-14T13:17:28;12.50;77.10
18291;DHT22;9271;48.590;8.866;2023-03-14T13:19:57;12.50;78.90
18291;DHT22;9271;48.590;8.866;2023-03-14T13:22:29;12.30;80.00
18291;DHT22;9271;48.590;8.866;2023-03-14T13:25:00;11.80;77.00
18291;DHT22;9271;48.590;8.866;2023-03-14T13:27:30;11.60;79.40
18291;DHT22;9271;48.590;8.866;2023-03-14T13:29:58;11.60;77.10
18291;DHT22;9271;48.590;8.866;2023-03-14T13:32:27;11.30;80.20
18291;DHT22;9271;48.590;8.866;2023-03-14T13:34:55;11.00;80.40
18291;DHT22;9271;48.590;8.866;2023-03-14T13:37:24;10.50;80.10
18291;DHT22;9271;48.590;8.866;2023-03-14T13:39:54;10.40;81.20
18291;DHT22;9271;48.590;8.866;2023-03-14T13:42:25;10.20;82.70
18291;DHT22;9271;48.590;8.866;2023-03-14T13:44:53;10.10;82.50
18291;DHT22;9271;48.590;8.866;2023-03-14T13:47:24;10.10;82.00
18291;DHT22;9271;48.590;8.866;2023-03-14T13:49:51;9.80;84.10
18291;DHT22;9271;48.590;8.866;2023-03-14T13:52:28;9.80;86.30
18291;DHT22;9271;48.590;8.866;2023-03-14T13:54:57;10.30;84.20
18291;DHT22;9271;48.590;8.866;2023-03-14T13:57:25;10.60;82.10
18291;DHT22;9271;48.590;8.866;2023-03-14T14:00:00;10.80;81.60
18291;DHT22;9271;48.590;8.866;2023-03-14T14:02:31;10.40;82.20
18291;DHT22;9271;48.590;8.866;2023-03-14T14:04:59;10.10;81.00
18291;DHT22;9271;48.590;8.866;2023-03-14T14:07:26;10.40;83.00
18291;DHT22;9271;48.590;8.866;2023-03-14T14:09:54;10.40;79.50
18291;DHT22;9271;48.590;8.866;2023-03-14T14:12:26;10.70;80.40
18291;DHT22;9271;48.590;8.866;2023-03-14T14:14:57;11.30;79.50
18291;DHT22;9271;48.590;8.866;2023-03-14T14:17:29;11.50;76.90
18291;DHT22;9271;48.590;8.866;2023-03-14T14:19:58;11.50;77.00
18291;DHT22;9271;48.590;8.866;2023-03-14T14:22:25;11.10;77.90
18291;DHT22;9271;48.590;8.866;2023-03-14T14:24:52;11.50;77.40
18291;DHT22;9271;48.590;8.866;2023-03-14T14:27:27;11.30;76.70
18291;DHT22;9271;48.590;8.866;2023-03-14T14:29:58;11.70;75.60
18291;DHT22;9271;48.590;8.866;2023-03-14T14:32:24;11.40;74.90
18291;DHT22;9271;48.590;8.866;2023-03-14T14:34:57;11.60;73.30
18291;DHT22;9271;48.590;8.866;2023-03-14T14:37:27;11.70;71.60
18291;DHT22;9271;48.590;8.866;2023-03-14T14:39:56;11.60;71.60
18291;DHT22;9271;48.590;8.866;2023-03-14T14:42:28;12.20;69.80
18291;DHT22;9271;48.590;8.866;2023-03-14T14:44:56;12.70;68.90
18291;DHT22;9271;48.590;8.866;2023-03-14T14:47:25;14.00;62.50
18291;DHT22;9271;48.590;8.866;2023-03-14T14:49:54;15.30;61.60
18291;DHT22;9271;48.590;8.866;2023-03-14T14:52:32;14.50;59.30
18291;DHT22;9271;48.590;8.866;2023-03-14T14:55:00;12.90;60.30
18291;DHT22;9271;48.590;8.866;2023-03-14T14:57:32;12.30;63.80
18291;DHT22;9271;48.590;8.866;2023-03-14T15:00:04;11.80;65.20
18291;DHT22;9271;48.590;8.866;2023-03-14T15:02:36;11.60;66.80
18291;DHT22;9271;48.590;8.866;2023-03-14T15:05:08;11.10;68.20
18291;DHT22;9271;48.590;8.866;2023-03-14T15:07:38;10.90;70.10
18291;DHT22;9271;48.590;8.866;2023-03-14T15:10:05;10.60;71.30
18291;DHT22;9271;48.590;8.866;2023-03-14T15:12:34;10.70;70.80
18291;DHT22;9271;48.590;8.866;2023-03-14T15:15:00;10.50;70.30
18291;DHT22;9271;48.590;8.866;2023-03-14T15:17:27;10.40;71.50
18291;DHT22;9271;48.590;8.866;2023-03-14T15:19:53;10.10;72.40
18291;DHT22;9271;48.590;8.866;2023-03-14T15:22:22;10.20;73.10
18291;DHT22;9271;48.590;8.866;2023-03-14T15:24:49;10.20;73.00
18291;DHT22;9271;48.590;8.866;2023-03-14T15:27:17;10.20;72.70
18291;DHT22;9271;48.590;8.866;2023-03-14T15:29:45;10.40;73.10
18291;DHT22;9271;48.590;8.866;2023-03-14T15:32:13;10.50;71.80
18291;DHT22;9271;48.590;8.866;2023-03-14T15:34:41;10.20;72.40
18291;DHT22;9271;48.590;8.866;2023-03-14T15:37:10;9.90;73.60
18291;DHT22;9271;48.590;8.866;2023-03-14T15:39:37;10.10;73.90
18291;DHT22;9271;48.590;8.866;2023-03-14T15:42:04;10.40;72.20
18291;DHT22;9271;48.590;8.866;2023-03-14T15:44:31;9.80;73.20
18291;DHT22;9271;48.590;8.866;2023-03-14T15:46:59;9.40;74.30
18291;DHT22;9271;48.590;8.866;2023-03-14T15:49:26;10.00;75.90
18291;DHT22;9271;48.590;8.866;2023-03-14T15:51:53;10.40;73.80
18291;DHT22;9271;48.590;8.866;2023-03-14T15:54:19;10.00;73.70
18291;DHT22;9271;48.590;8.866;2023-03-14T15:56:46;9.80;75.00
18291;DHT22;9271;48.590;8.866;2023-03-14T15:59:12;9.80;76.40
18291;DHT22;9271;48.590;8.866;2023-03-14T16:01:39;9.80;74.80
18291;DHT22;9271;48.590;8.866;2023-03-14T16:04:07;9.60;75.40
18291;DHT22;9271;48.590;8.866;2023-03-14T16:06:34;9.60;76.10
18291;DHT22;9271;48.590;8.866;2023-03-14T16:09:02;9.90;76.30